CZ-0003 weather

Hospital Heliport
Jindřichův Hradec, South Bohemian Region, Czechia

Public forecast

Using degrees Celsius for public forecast. Weather courtesy of forecast.io.

METAR (pilot weather report)

Closest report is Náměšť Air Base, 44.0 nm (81.5 km) E. Retrieved 2019/08/20 15:00 UTC (10 minutes ago):

LKNA 201500Z 14004KT 110V190 9999 FEW045 BKN080 25/16 Q1020 NOSIG RMK BLU BLU

TAF (pilot weather forecast)

Closest forecast is Náměšť Air Base, 44.0 nm (81.5 km) E. Retrieved 2019/08/20 12:05 UTC (3 hours ago):

TAF LKNA 201100Z 2012/2112 14006KT CAVOK TEMPO 2012/2018 SHRA BKN030TCU PROB30 TEMPO 2012/2018 24010G22KT 6000 TSRA BKN030CB BECMG 2019/2021 30010KT BKN030 TEMPO 2023/2107 32012G24KT 7000 RA BKN020